Isle of Harris, United Kingdom
Current Conditions -  °F | °C
As of 2:50 AM on Thursday 23 Oct 2014 (Local Time) from EGPO Reporting Station
Broken Clouds Broken Clouds  
Wind Chill: 52°   Ceiling: 3200
Heat Index: 52°   Visibility: 6mi
Dew Point: 46°   Wind: 24mph
Humidity: 82%   Direction: 240°WSW
Pressure: 29.62"   Gusts: NA
Location:  57.99°N, 6.75°W
Report Text: EGPO 230150Z AUTO 24021KT 9999 FEW024/// BKN032/// BKN037/// 11/08 Q1003
Loading
Personal Weather Stations






























Interactive Weather Map New forecast layout! Learn more

10-Day Weather Forecast

Advertisements
Track Severe Weather on mobile